Time;durP1;ratioP1;P1;durP2;ratioP2;P2;SDS_P1;SDS_P2;PMS_P1;PMS_P2;Temp;Humidity;BMP_temperature;BMP_pressure;BME280_temperature;BME280_humidity;BME280_pressure;Samples;Min_cycle;Max_cycle;Signal;HPM_P1;HPM_P2
2022/02/03 00:01:25;;;;;;;31.90;11.60;;;;;;;-4.13;64.19;98456.66;5012100;28;20141;-71
2022/02/03 00:04:04;;;;;;;28.63;10.83;;;;;;;-4.22;63.94;98449.91;5013839;28;20516;-72
2022/02/03 00:06:48;;;;;;;31.80;11.77;;;;;;;-4.22;63.92;98465.91;5018943;28;20068;-71
2022/02/03 00:23:37;;;;;;;43.00;12.25;;;;;;;-4.42;64.48;98464.94;5018231;28;20057;-71
2022/02/03 00:25:41;;;;;;;34.53;11.93;;;;;;;-4.46;64.42;98462.91;5020894;28;20074;-71
2022/02/03 00:28:20;;;;;;;36.63;12.63;;;;;;;-4.51;64.36;98460.88;5014685;28;20148;-71
2022/02/03 00:33:32;;;;;;;33.47;11.83;;;;;;;-4.41;64.43;98477.25;5029483;28;20084;-71
2022/02/03 00:49:59;;;;;;;31.77;10.73;;;;;;;-4.26;63.59;98481.53;5022073;28;20080;-71
2022/02/03 00:52:28;;;;;;;29.60;10.73;;;;;;;-4.27;63.69;98488.72;5026860;28;20052;-72
2022/02/03 00:54:54;;;;;;;37.73;11.50;;;;;;;-4.28;63.59;98486.25;5025621;28;20056;-71
2022/02/03 00:57:29;;;;;;;29.17;11.70;;;;;;;-4.29;63.79;98481.97;5029617;28;20402;-73
2022/02/03 01:00:00;;;;;;;42.87;12.67;;;;;;;-4.35;63.89;98482.81;5037420;28;20099;-71
2022/02/03 01:02:28;;;;;;;34.07;13.20;;;;;;;-4.37;64.24;98488.34;5023192;28;20107;-72
2022/02/03 01:04:58;;;;;;;47.83;14.17;;;;;;;-4.34;64.11;98489.78;5023795;28;20065;-72
2022/02/03 01:07:28;;;;;;;41.40;15.60;;;;;;;-4.40;64.08;98478.09;5015249;28;20076;-72
2022/02/03 01:10:05;;;;;;;37.53;14.17;;;;;;;-4.34;64.02;98493.25;5017978;28;20053;-71
2022/02/03 01:15:35;;;;;;;40.03;12.93;;;;;;;-4.38;64.17;98491.22;5016213;28;20140;-69
2022/02/03 01:45:02;;;;;;;;;;;;;;;-4.44;63.25;98503.56;5032249;28;20118;-72
2022/02/03 01:52:32;;;;;;;27.87;11.40;;;;;;;-4.41;62.89;98511.16;5038888;28;20045;-71
2022/02/03 01:55:01;;;;;;;26.13;10.73;;;;;;;-4.42;62.63;98514.84;5012578;28;20173;-71
2022/02/03 01:57:35;;;;;;;29.33;10.97;;;;;;;-4.53;62.87;98510.94;5029552;28;20063;-71
2022/02/03 02:00:06;;;;;;;25.23;11.43;;;;;;;-4.58;62.93;98505.41;5030096;28;20057;-72
2022/02/03 02:02:43;;;;;;;;;;;;;;;-4.48;62.95;98521.00;5028691;28;20049;-72
2022/02/03 02:05:26;;;;;;;25.27;9.83;;;;;;;-4.57;62.72;98512.41;5014278;28;20312;-71
2022/02/03 02:08:03;;;;;;;29.10;13.03;;;;;;;-4.59;63.30;98525.13;5017216;28;20179;-70
2022/02/03 02:43:50;;;;;;;24.53;10.47;;;;;;;-4.38;62.11;98521.41;5011056;28;20397;-71
2022/02/03 02:46:22;;;;;;;30.33;11.93;;;;;;;-4.43;62.29;98507.88;5004600;28;20049;-71
2022/02/03 02:49:09;;;;;;;27.60;11.87;;;;;;;-4.34;62.34;98527.16;5027657;28;20141;-71
2022/02/03 02:51:45;;;;;;;30.98;11.15;;;;;;;-4.28;62.12;98526.31;5023539;28;20046;-69
2022/02/03 03:30:13;;;;;;;27.83;12.33;;;;;;;-4.48;62.16;98550.34;5012828;28;20045;-72
2022/02/03 03:33:16;;;;;;;30.15;12.85;;;;;;;-4.51;62.60;98542.78;5016954;28;20034;-73
2022/02/03 03:35:50;;;;;;;27.90;12.33;;;;;;;-4.48;62.08;98545.84;5023869;28;20055;-72
2022/02/03 03:38:18;;;;;;;29.77;12.47;;;;;;;-4.47;62.09;98536.81;5022727;28;20050;-73
2022/02/03 03:40:49;;;;;;;30.55;13.52;;;;;;;-4.50;62.16;98553.25;5028448;28;20076;-76
2022/02/03 03:43:27;;;;;;;36.50;13.83;;;;;;;-4.62;62.29;98545.03;5023747;28;20386;-72
2022/02/03 03:45:54;;;;;;;30.03;12.90;;;;;;;-4.61;62.18;98553.88;5025926;28;20054;-72
2022/02/03 03:48:34;;;;;;;29.38;12.73;;;;;;;-4.62;62.34;98544.22;5021952;28;20072;-73
2022/02/03 03:51:04;;;;;;;31.87;11.97;;;;;;;-4.59;62.13;98547.31;5026499;28;20064;-73
2022/02/03 03:53:49;;;;;;;32.53;13.53;;;;;;;-4.54;62.22;98543.19;5016481;28;20167;-73
2022/02/03 03:56:33;;;;;;;31.33;13.03;;;;;;;-4.52;62.21;98543.81;5027752;28;20049;-74
2022/02/03 03:59:29;;;;;;;28.77;12.97;;;;;;;-4.52;62.27;98546.47;5025060;28;20046;-73
2022/02/03 04:34:05;;;;;;;;;;;;;;;-4.65;61.94;98563.31;5029986;28;20137;-73
2022/02/03 04:37:25;;;;;;;25.53;11.30;;;;;;;-4.70;61.86;98572.75;5024521;28;20036;-72
2022/02/03 04:45:55;;;;;;;27.77;11.97;;;;;;;-4.76;62.00;98568.22;5014682;28;20128;-73
2022/02/03 04:51:43;;;;;;;26.40;12.77;;;;;;;-4.79;61.76;98581.16;5015555;28;20085;-73
2022/02/03 04:57:48;;;;;;;41.27;15.60;;;;;;;-4.78;61.77;98593.47;5023857;28;20053;-73
2022/02/03 05:08:57;;;;;;;55.03;14.75;;;;;;;-5.01;62.37;98563.50;5036067;28;20046;-73
2022/02/03 05:12:02;;;;;;;42.60;15.53;;;;;;;-4.84;62.42;98584.44;5026008;28;20046;-73
2022/02/03 05:32:41;;;;;;;35.73;14.90;;;;;;;-4.78;61.93;98596.97;5034514;28;20053;-73
2022/02/03 06:13:47;;;;;;;32.23;13.27;;;;;;;-4.81;61.23;98631.22;5020228;28;20049;-72
2022/02/03 06:29:29;;;;;;;31.00;12.50;;;;;;;-4.66;60.86;98641.72;5029622;28;20421;-74
2022/02/03 06:31:56;;;;;;;28.17;13.27;;;;;;;-4.60;60.25;98640.88;5046593;28;20245;-73
2022/02/03 06:34:23;;;;;;;30.73;13.63;;;;;;;-4.60;60.25;98625.72;5030263;28;20052;-75
2022/02/03 06:36:53;;;;;;;31.63;14.45;;;;;;;-4.43;60.24;98630.63;5045290;28;20071;-74
2022/02/03 06:39:20;;;;;;;30.20;13.50;;;;;;;-4.41;59.95;98625.91;5011491;28;20152;-74
2022/02/03 06:41:50;;;;;;;31.13;13.32;;;;;;;-4.44;59.93;98611.13;5026548;28;20103;-74
2022/02/03 06:44:19;;;;;;;36.07;14.33;;;;;;;-4.36;59.88;98612.75;5026431;28;20057;-75
2022/02/03 06:46:48;;;;;;;35.00;14.10;;;;;;;-4.25;59.65;98631.84;5007786;28;20046;-73
2022/02/03 06:49:22;;;;;;;37.90;14.30;;;;;;;-4.26;59.69;98631.03;5024899;28;20510;-74
2022/02/03 06:51:58;;;;;;;37.30;15.37;;;;;;;-4.21;59.56;98631.25;5009432;28;20463;-74
2022/02/03 06:54:35;;;;;;;48.17;15.87;;;;;;;-4.17;59.60;98623.63;5005984;28;20045;-74
2022/02/03 06:57:04;;;;;;;41.55;16.05;;;;;;;-4.19;59.74;98609.66;5025863;28;20119;-76
2022/02/03 06:59:46;;;;;;;37.30;16.60;;;;;;;-4.10;59.47;98620.94;5000558;28;20046;-77
2022/02/03 07:02:12;;;;;;;41.03;16.70;;;;;;;-4.11;59.62;98625.47;5014776;28;20050;-75
2022/02/03 07:04:44;;;;;;;34.93;16.43;;;;;;;-4.15;59.77;98625.06;5023725;28;20446;-75
2022/02/03 07:07:16;;;;;;;41.20;16.33;;;;;;;-4.05;59.73;98623.81;5022562;28;20049;-75
2022/02/03 07:09:44;;;;;;;41.37;17.10;;;;;;;-3.96;59.73;98617.22;5017879;28;20041;-75
2022/02/03 07:12:10;;;;;;;35.40;15.27;;;;;;;-3.88;59.59;98618.84;5024523;28;20049;-74
2022/02/03 07:14:37;;;;;;;39.90;18.67;;;;;;;-3.82;59.18;98606.50;5019961;28;20563;-75
2022/02/03 07:17:05;;;;;;;46.27;19.60;;;;;;;-3.79;59.60;98619.44;5015053;28;20509;-75
2022/02/03 07:19:37;;;;;;;41.95;19.33;;;;;;;-3.72;59.21;98629.06;5026514;28;20046;-75
2022/02/03 07:22:04;;;;;;;41.50;19.53;;;;;;;-3.58;58.90;98637.88;5016842;28;20511;-74
2022/02/03 07:24:32;;;;;;;46.60;20.57;;;;;;;-3.53;58.64;98637.22;5019044;28;20052;-76
2022/02/03 07:26:58;;;;;;;;;;;;;;;-3.51;58.78;98645.88;5017236;28;20061;-75
2022/02/03 07:29:24;;;;;;;53.23;21.73;;;;;;;-3.51;58.72;98645.88;5028285;28;20577;-77
2022/02/03 07:31:50;;;;;;;54.40;21.30;;;;;;;-3.48;58.64;98649.97;5034086;28;20076;-77
2022/02/03 07:34:18;;;;;;;57.50;21.77;;;;;;;-3.44;58.80;98648.50;5014076;28;20065;-77
2022/02/03 07:36:45;;;;;;;;;;;;;;;-3.48;58.44;98658.81;5025102;28;20577;-77
2022/02/03 07:39:12;;;;;;;47.03;20.50;;;;;;;-3.47;58.31;98655.09;5026028;28;19928;-77
2022/02/03 07:41:39;;;;;;;49.67;20.83;;;;;;;-3.35;58.17;98660.59;4992658;28;20050;-76
2022/02/03 07:44:06;;;;;;;;;;;;;;;-3.27;57.99;98651.53;5017072;28;20053;-77
2022/02/03 07:46:34;;;;;;;60.88;22.75;;;;;;;-3.25;57.66;98657.47;5012195;28;20409;-77
2022/02/03 07:49:00;;;;;;;;;;;;;;;-3.16;57.89;98653.53;5023492;28;20077;-77
2022/02/03 07:51:26;;;;;;;63.20;24.20;;;;;;;-3.10;57.61;98654.53;5019756;28;20380;-77
2022/02/03 07:53:53;;;;;;;63.73;22.93;;;;;;;-3.16;57.68;98645.53;4965674;28;1292513;-77
2022/02/03 07:56:19;;;;;;;56.92;23.05;;;;;;;-3.05;57.70;98660.06;5003057;28;20049;-77
2022/02/03 07:58:47;;;;;;;57.47;23.20;;;;;;;-3.02;57.58;98651.59;5019687;28;20406;-77
2022/02/03 08:01:13;;;;;;;60.47;24.73;;;;;;;-2.98;57.51;98660.03;5023161;28;20490;-76
2022/02/03 08:03:43;;;;;;;61.87;26.07;;;;;;;-2.85;57.38;98667.16;5021217;28;20041;-80
2022/02/03 08:06:14;;;;;;;66.93;24.27;;;;;;;-2.86;57.04;98665.50;4996116;28;20425;-80
2022/02/03 08:08:45;;;;;;;69.83;25.87;;;;;;;-2.77;57.16;98671.44;5015385;28;20073;-80
2022/02/03 08:11:18;;;;;;;65.00;28.53;;;;;;;-2.77;57.40;98661.56;5021812;28;20060;-81
2022/02/03 08:13:54;;;;;;;71.13;27.57;;;;;;;-2.77;57.36;98666.91;5023392;28;20081;-81
2022/02/03 08:16:29;;;;;;;56.47;25.30;;;;;;;-2.80;57.60;98667.34;5027610;28;20053;-80
2022/02/03 08:19:05;;;;;;;55.30;25.63;;;;;;;-2.72;57.52;98674.31;5025099;28;20049;-80
2022/02/03 08:21:34;;;;;;;52.27;23.37;;;;;;;-2.73;57.79;98667.31;5024362;28;20037;-80
2022/02/03 08:24:16;;;;;;;55.23;23.47;;;;;;;-2.70;57.80;98672.22;5016509;28;20585;-81
2022/02/03 08:30:02;;;;;;;57.50;24.07;;;;;;;-2.54;57.39;98662.84;5015071;28;20271;-79
2022/02/03 08:32:10;;;;;;;57.87;23.53;;;;;;;-2.37;57.45;98675.69;5010187;28;20046;-80
2022/02/03 08:37:13;;;;;;;52.67;23.83;;;;;;;-2.18;57.28;98661.34;5013253;28;20045;-80
2022/02/03 08:39:52;;;;;;;47.22;23.27;;;;;;;-2.03;56.89;98668.19;5026219;28;20140;-80
2022/02/03 08:42:18;;;;;;;50.57;21.97;;;;;;;-1.94;56.80;98664.22;5011723;28;20048;-74
2022/02/03 08:44:45;;;;;;;63.87;23.87;;;;;;;-1.94;56.67;98664.22;5041301;28;20048;-73
2022/02/03 08:47:13;;;;;;;45.72;23.02;;;;;;;-1.80;56.62;98672.94;5029332;28;20057;-71
2022/02/03 08:49:44;;;;;;;78.30;39.43;;;;;;;-2.00;56.38;98646.34;5024885;28;20053;-75
2022/02/03 08:52:17;;;;;;;119.00;62.50;;;;;;;-1.73;56.31;98678.22;5009482;28;20078;-75
2022/02/03 08:54:57;;;;;;;92.20;46.03;;;;;;;-1.80;55.95;98672.13;5017583;28;20056;-75
2022/02/03 08:57:37;;;;;;;55.43;25.30;;;;;;;-1.93;56.01;98683.78;5035055;28;20053;-73
2022/02/03 09:00:20;;;;;;;43.27;21.30;;;;;;;-2.03;56.15;98677.06;5027473;28;20058;-73
2022/02/03 09:54:21;;;;;;;48.85;22.08;;;;;;;-2.73;57.20;98659.28;5030205;28;20512;-74
2022/02/03 09:59:47;;;;;;;50.87;24.33;;;;;;;-2.77;57.83;98666.91;5031776;28;20052;-74
2022/02/03 10:02:20;;;;;;;64.07;24.13;;;;;;;-2.71;58.00;98665.25;5023678;28;20502;-74
2022/02/03 10:04:55;;;;;;;48.20;22.47;;;;;;;-2.62;58.04;98666.59;5028193;28;20499;-74
2022/02/03 10:07:28;;;;;;;50.33;23.03;;;;;;;-2.51;57.98;98667.75;4990397;28;20046;-71
2022/02/03 10:09:57;;;;;;;46.43;22.63;;;;;;;-2.55;58.16;98647.81;5028119;28;20099;-71
2022/02/03 10:12:30;;;;;;;50.73;20.60;;;;;;;-2.33;58.08;98667.00;4981937;28;20530;-71
2022/02/03 10:14:56;;;;;;;41.23;18.50;;;;;;;-2.35;58.16;98660.22;5021631;28;20057;-70
2022/02/03 10:17:32;;;;;;;41.88;19.02;;;;;;;-2.46;58.56;98661.75;5020541;28;20062;-74
2022/02/03 10:19:59;;;;;;;45.43;19.23;;;;;;;-2.52;58.24;98644.69;5020354;28;20577;-73
2022/02/03 10:22:27;;;;;;;53.13;21.05;;;;;;;-2.47;58.59;98652.91;5016739;28;20046;-73
2022/02/03 10:25:00;;;;;;;48.27;20.50;;;;;;;-2.42;58.50;98657.59;5027784;28;20053;-72
2022/02/03 10:27:37;;;;;;;46.63;19.90;;;;;;;-2.39;58.55;98653.66;5029935;28;20046;-73
2022/02/03 10:30:16;;;;;;;46.70;20.80;;;;;;;-2.39;58.49;98646.47;5030157;28;20586;-72
2022/02/03 10:32:46;;;;;;;43.87;19.80;;;;;;;-2.24;58.29;98662.19;5033204;28;20115;-72
2022/02/03 10:35:42;;;;;;;44.57;20.17;;;;;;;-2.17;58.02;98660.31;5027765;28;20050;-71
2022/02/03 10:44:10;;;;;;;43.57;19.57;;;;;;;-2.02;57.98;98676.03;5029653;28;20132;-72
2022/02/03 10:47:08;;;;;;;44.47;19.70;;;;;;;-1.96;57.93;98676.19;5038309;28;20525;-73
2022/02/03 11:01:22;;;;;;;52.00;21.33;;;;;;;-1.56;57.01;98675.78;5026593;28;20466;-72
2022/02/03 11:04:13;;;;;;;46.87;19.60;;;;;;;-1.51;57.09;98680.50;5024202;28;20049;-73
2022/02/03 11:06:59;;;;;;;49.97;20.13;;;;;;;-1.50;57.08;98674.88;5031112;28;20524;-73
2022/02/03 11:09:49;;;;;;;43.57;19.97;;;;;;;-1.43;57.00;98674.81;5029260;28;20073;-74
2022/02/03 11:12:22;;;;;;;48.37;19.87;;;;;;;-1.34;56.84;98668.13;5012287;28;20068;-73
2022/02/03 11:14:50;;;;;;;49.03;20.20;;;;;;;-1.15;56.49;98665.41;5025930;28;20037;-73
2022/02/03 11:17:18;;;;;;;59.47;20.07;;;;;;;-0.94;55.92;98664.09;5023183;28;20422;-73
2022/02/03 11:19:51;;;;;;;45.23;19.07;;;;;;;-0.53;55.58;98671.63;4999473;28;20046;-73
2022/02/03 11:22:22;;;;;;;44.23;19.63;;;;;;;-0.23;55.01;98676.91;5023993;28;20132;-73
2022/02/03 11:25:03;;;;;;;45.67;19.33;;;;;;;-0.25;55.13;98670.13;5003361;28;20045;-71
2022/02/03 11:28:01;;;;;;;51.10;21.03;;;;;;;-0.33;55.09;98674.81;5018048;28;20064;-71
2022/02/03 11:38:57;;;;;;;40.43;20.23;;;;;;;-0.71;55.10;98665.22;5029124;28;20053;-71
2022/02/03 11:47:41;;;;;;;34.40;18.53;;;;;;;-1.12;56.02;98667.63;5027235;28;20057;-70
2022/02/03 12:01:35;;;;;;;41.07;18.77;;;;;;;-1.11;55.91;98690.75;5017066;28;20143;-72
2022/02/03 12:18:14;;;;;;;41.43;18.47;;;;;;;-1.26;56.46;98675.03;5027985;28;20054;-71
2022/02/03 12:23:44;;;;;;;40.17;18.67;;;;;;;-1.22;56.63;98670.06;5024715;28;20514;-71
2022/02/03 12:26:20;;;;;;;41.47;19.20;;;;;;;-1.33;56.74;98677.81;5010075;28;20060;-71
2022/02/03 12:28:53;;;;;;;46.73;19.60;;;;;;;-1.40;57.10;98666.34;5028753;28;20084;-71
2022/02/03 12:39:10;;;;;;;41.80;18.30;;;;;;;-1.38;56.89;98645.47;5022136;28;20057;-71
2022/02/03 12:41:40;;;;;;;39.07;17.43;;;;;;;-1.18;56.75;98671.22;5012598;28;20080;-71
2022/02/03 12:44:16;;;;;;;35.00;16.73;;;;;;;-1.21;56.75;98679.75;5023451;28;20054;-71
2022/02/03 12:46:43;;;;;;;37.13;16.87;;;;;;;-1.30;57.13;98680.03;5011292;28;20049;-73
2022/02/03 12:49:10;;;;;;;42.53;17.50;;;;;;;-1.40;57.12;98681.59;5012845;28;20042;-71
2022/02/03 12:51:37;;;;;;;;;;;;;;;-1.48;57.28;98680.88;5022377;28;20506;-71
2022/02/03 12:54:11;;;;;;;39.03;16.23;;;;;;;-1.52;57.23;98684.22;5015196;28;19983;-71
2022/02/03 12:56:38;;;;;;;42.30;16.63;;;;;;;-1.69;57.60;98662.53;5019918;28;20263;-72
2022/02/03 12:59:13;;;;;;;35.57;16.23;;;;;;;-1.61;57.72;98689.84;5014851;28;20057;-71
2022/02/03 13:01:41;;;;;;;41.47;16.80;;;;;;;-1.67;57.78;98693.44;5017938;28;20050;-71
2022/02/03 13:04:16;;;;;;;39.43;16.60;;;;;;;-1.73;57.88;98683.59;5022921;28;20049;-74
2022/02/03 13:06:54;;;;;;;40.17;16.77;;;;;;;-1.73;58.02;98699.66;5026022;28;20057;-73
2022/02/03 13:09:26;;;;;;;40.73;16.93;;;;;;;-1.73;57.77;98691.63;5020990;28;20076;-73
2022/02/03 13:12:01;;;;;;;34.63;15.57;;;;;;;-1.85;58.37;98691.53;5021834;28;20135;-77
2022/02/03 13:14:35;;;;;;;33.47;15.23;;;;;;;-1.91;58.46;98682.50;5038655;28;20042;-75
2022/02/03 13:17:11;;;;;;;37.30;16.50;;;;;;;-2.00;58.63;98686.53;5022154;28;20058;-74
2022/02/03 13:19:52;;;;;;;36.97;17.00;;;;;;;-2.06;58.92;98679.34;5022991;28;20041;-74
2022/02/03 13:22:39;;;;;;;36.60;16.00;;;;;;;-2.02;58.87;98680.59;5028955;28;20406;-74
2022/02/03 13:25:13;;;;;;;;;;;;;;;-2.07;58.97;98681.22;5030379;28;20423;-74
2022/02/03 13:30:16;;;;;;;29.07;14.40;;;;;;;-2.18;59.24;98690.81;5029355;28;20525;-74
2022/02/03 13:32:47;;;;;;;35.63;16.07;;;;;;;-2.16;59.20;98685.22;5023729;28;20057;-74
2022/02/03 13:35:30;;;;;;;38.87;16.60;;;;;;;-2.20;59.38;98684.81;5022006;28;20061;-74
2022/02/03 13:38:08;;;;;;;41.17;16.33;;;;;;;-2.26;59.39;98680.34;5019080;28;20064;-74
2022/02/03 13:40:34;;;;;;;35.72;16.63;;;;;;;-2.24;59.54;98685.50;5014678;28;20152;-73
2022/02/03 13:43:04;;;;;;;37.63;16.67;;;;;;;-2.22;59.66;98694.13;5030523;28;20041;-73
2022/02/03 13:45:30;;;;;;;42.50;16.00;;;;;;;-2.25;59.82;98689.22;5026499;28;20053;-73
2022/02/03 13:47:57;;;;;;;39.43;16.83;;;;;;;-2.28;59.89;98685.09;5023695;28;20049;-72
2022/02/03 13:50:31;;;;;;;35.97;16.00;;;;;;;-2.32;59.96;98681.22;5016446;28;20045;-71
2022/02/03 13:53:13;;;;;;;37.30;16.87;;;;;;;-2.13;59.28;98687.44;5017144;28;20313;-71
2022/02/03 14:15:54;;;;;;;37.27;16.77;;;;;;;-2.50;60.61;98695.34;5024774;28;20069;-77
2022/02/03 14:21:07;;;;;;;43.57;17.73;;;;;;;-2.53;60.75;98699.28;5022776;28;20111;-76
2022/02/03 14:29:12;;;;;;;39.87;16.60;;;;;;;-2.51;60.86;98699.06;5027582;28;20559;-76
2022/02/03 14:31:39;;;;;;;40.17;16.77;;;;;;;-2.47;60.84;98694.91;5028297;28;20053;-77
2022/02/03 14:34:11;;;;;;;42.08;15.45;;;;;;;-2.47;60.72;98702.94;4995227;28;20195;-76
2022/02/03 14:36:37;;;;;;;36.87;16.73;;;;;;;-2.46;61.06;98708.09;5012386;28;20550;-78
2022/02/03 14:41:46;;;;;;;40.17;18.63;;;;;;;-2.46;60.71;98699.25;5018935;28;20042;-76
2022/02/03 14:44:16;;;;;;;43.17;18.87;;;;;;;-2.47;60.87;98698.44;5023093;28;20045;-78
2022/02/03 14:46:42;;;;;;;43.90;19.40;;;;;;;-2.46;60.98;98701.91;5030414;28;20053;-70
2022/02/03 14:49:11;;;;;;;41.58;18.33;;;;;;;-2.40;60.88;98706.41;5014320;28;20069;-70
2022/02/03 14:51:50;;;;;;;;;;;;;;;-2.39;60.60;98707.22;5026468;28;20045;-69
2022/02/03 14:59:30;;;;;;;43.60;20.07;;;;;;;-2.51;60.90;98710.59;5023409;28;20514;-73
2022/02/03 15:01:56;;;;;;;45.83;20.63;;;;;;;-2.49;60.81;98713.91;5023585;28;20500;-75
2022/02/03 15:04:26;;;;;;;49.67;21.10;;;;;;;-2.54;60.99;98708.34;5025598;28;20167;-74
2022/02/03 15:06:59;;;;;;;45.77;21.60;;;;;;;-2.54;60.99;98707.53;5024564;28;20042;-73
2022/02/03 15:09:50;;;;;;;54.43;22.53;;;;;;;-2.49;60.92;98710.38;5019053;28;20461;-74
2022/02/03 15:15:01;;;;;;;54.57;25.20;;;;;;;-2.48;60.72;98712.84;5030838;28;20107;-73
2022/02/03 15:17:29;;;;;;;60.60;26.80;;;;;;;-2.50;60.86;98711.41;5026173;28;20057;-73
2022/02/03 15:19:56;;;;;;;66.40;29.00;;;;;;;-2.50;61.08;98714.09;5006581;28;20085;-73
2022/02/03 15:22:22;;;;;;;68.63;29.85;;;;;;;-2.48;60.88;98706.66;5005481;28;20407;-73
2022/02/03 15:24:50;;;;;;;68.47;30.63;;;;;;;-2.50;60.84;98708.75;5024033;28;20056;-73
2022/02/03 15:27:16;;;;;;;;;;;;;;;-2.50;60.83;98714.09;5021566;28;20518;-72
2022/02/03 15:29:48;;;;;;;63.40;27.13;;;;;;;-2.67;60.83;98692.38;5022440;28;19925;-74
2022/02/03 15:32:14;;;;;;;65.63;28.90;;;;;;;-2.54;60.94;98724.41;5023921;28;20057;-74
2022/02/03 15:34:40;;;;;;;66.27;28.70;;;;;;;-2.56;60.96;98713.09;5011527;28;20050;-73
2022/02/03 15:37:13;;;;;;;62.20;29.13;;;;;;;-2.52;61.10;98718.84;5011520;28;20042;-73
2022/02/03 15:39:47;;;;;;;59.70;28.33;;;;;;;-2.53;60.76;98715.34;5015501;28;20052;-74
2022/02/03 15:42:19;;;;;;;64.57;28.93;;;;;;;-2.61;60.97;98720.97;5012164;28;20406;-75
2022/02/03 15:44:50;;;;;;;61.10;29.20;;;;;;;-2.76;60.97;98703.34;5020480;28;20050;-73
2022/02/03 15:47:28;;;;;;;64.50;29.37;;;;;;;-2.62;60.99;98730.84;5012107;28;20140;-74
2022/02/03 15:59:04;;;;;;;63.80;28.40;;;;;;;-2.59;60.84;98724.25;5022130;28;20053;-74
2022/02/03 16:01:21;;;;;;;72.22;28.83;;;;;;;-2.57;60.95;98732.88;5028356;28;20045;-74
2022/02/03 16:04:07;;;;;;;70.83;29.33;;;;;;;-2.62;60.83;98730.03;5029013;28;20053;-73
2022/02/03 16:17:22;;;;;;;64.23;28.63;;;;;;;-2.74;61.06;98735.22;5013698;28;20076;-74
2022/02/03 16:25:04;;;;;;;60.30;28.67;;;;;;;-2.64;60.64;98732.09;5016426;28;20069;-75
2022/02/03 16:52:37;;;;;;;62.27;27.87;;;;;;;-2.68;60.39;98717.50;5032155;28;20048;-78
2022/02/03 16:55:05;;;;;;;61.90;28.43;;;;;;;-2.67;60.40;98722.63;5031645;28;20041;-78
2022/02/03 16:57:31;;;;;;;69.50;28.67;;;;;;;-2.60;60.21;98719.94;5031467;28;20053;-78
2022/02/03 17:00:09;;;;;;;68.80;28.53;;;;;;;-2.64;60.28;98721.41;5025712;28;20046;-78
2022/02/03 17:02:37;;;;;;;63.07;27.23;;;;;;;-2.59;59.99;98718.88;5026365;28;20037;-78
2022/02/03 17:05:03;;;;;;;;;;;;;;;-2.54;59.81;98729.75;5041501;28;20049;-78
2022/02/03 17:07:30;;;;;;;64.30;26.83;;;;;;;-2.71;60.03;98710.72;5021533;28;19951;-77
2022/02/03 17:09:58;;;;;;;72.23;29.87;;;;;;;-2.61;60.00;98719.09;5020738;28;20458;-78
2022/02/03 17:12:26;;;;;;;65.77;27.47;;;;;;;-2.65;60.20;98719.75;5026710;28;20046;-79
2022/02/03 17:14:52;;;;;;;66.80;28.23;;;;;;;-2.63;60.00;98709.66;5033163;28;20505;-78
2022/02/03 17:17:20;;;;;;;68.93;29.37;;;;;;;-2.61;59.89;98724.44;5017243;28;20041;-77
2022/02/03 17:19:48;;;;;;;;;;;;;;;-2.56;59.80;98715.78;5007934;28;20073;-78
2022/02/03 17:22:15;;;;;;;;;;;;;;;-2.59;60.00;98718.88;5013850;28;19932;-78
2022/02/03 17:24:50;;;;;;;73.53;28.27;;;;;;;-2.66;59.88;98713.56;5026158;28;19932;-76
2022/02/03 17:27:29;;;;;;;67.13;26.43;;;;;;;-2.73;60.07;98710.13;5015643;28;20065;-75
2022/02/03 18:30:16;;;;;;;57.73;26.93;;;;;;;-3.10;61.25;98704.53;5016757;28;20052;-71
2022/02/03 18:32:57;;;;;;;59.33;25.70;;;;;;;-3.06;61.44;98719.94;5027002;28;20072;-70
2022/02/03 18:56:55;;;;;;;61.93;25.73;;;;;;;-3.24;61.96;98698.44;5031136;28;20053;-73
2022/02/03 18:59:52;;;;;;;59.73;25.53;;;;;;;-3.20;62.01;98710.34;5018558;28;20049;-73
2022/02/03 19:13:32;;;;;;;55.20;22.87;;;;;;;-3.25;62.12;98700.25;5027389;28;20065;-72
2022/02/03 20:00:59;;;;;;;52.13;21.70;;;;;;;-3.32;62.55;98715.53;5021497;28;20048;-71
2022/02/03 20:05:17;;;;;;;46.73;21.23;;;;;;;-3.31;62.82;98711.81;5026564;28;20647;-73
2022/02/03 20:07:57;;;;;;;57.83;22.33;;;;;;;-3.30;62.84;98710.78;5026182;28;20041;-72
2022/02/03 20:10:34;;;;;;;49.07;19.77;;;;;;;-3.30;62.84;98703.56;5022381;28;20437;-75
2022/02/03 20:13:01;;;;;;;60.67;25.52;;;;;;;-3.31;62.78;98707.28;5024589;28;20052;-74
2022/02/03 20:15:27;;;;;;;74.73;34.60;;;;;;;-3.35;62.81;98689.22;5024021;28;20051;-74
2022/02/03 20:17:55;;;;;;;130.27;53.00;;;;;;;-3.26;62.44;98709.31;5011720;28;20049;-74
2022/02/03 20:20:21;;;;;;;;;;;;;;;-3.23;62.57;98711.56;5023572;28;20049;-74
2022/02/03 20:22:48;;;;;;;95.47;42.30;;;;;;;-3.30;62.50;98706.25;5036887;28;19975;-74
2022/02/03 20:25:14;;;;;;;;;;;;;;;-3.30;62.65;98719.59;5020744;28;20053;-74
2022/02/03 20:27:41;;;;;;;51.60;24.37;;;;;;;-3.33;62.72;98717.38;5028594;28;19925;-75
2022/02/03 20:30:09;;;;;;;56.23;23.10;;;;;;;-3.36;62.75;98724.97;5024216;28;20065;-75
2022/02/03 20:32:36;;;;;;;53.87;23.10;;;;;;;-3.35;62.88;98732.00;5012617;28;20049;-74
2022/02/03 20:35:04;;;;;;;53.50;21.43;;;;;;;-3.30;62.91;98729.50;5019622;28;20042;-74
2022/02/03 20:37:31;;;;;;;55.07;24.47;;;;;;;-3.30;62.65;98735.66;5023152;28;20053;-74
2022/02/03 20:39:57;;;;;;;65.47;26.63;;;;;;;-3.23;62.60;98718.78;5030666;28;20512;-73
2022/02/03 20:42:23;;;;;;;73.60;30.17;;;;;;;-3.20;62.46;98716.50;4998563;28;20092;-75
2022/02/03 20:44:50;;;;;;;65.60;27.03;;;;;;;-3.21;62.56;98712.16;5012395;28;20053;-75
2022/02/03 20:47:18;;;;;;;57.37;26.50;;;;;;;-3.21;62.35;98712.16;5022442;28;20069;-75
2022/02/03 20:49:44;;;;;;;55.65;25.75;;;;;;;-3.19;62.09;98717.31;5012309;28;20053;-73
2022/02/03 20:52:12;;;;;;;53.07;22.97;;;;;;;-3.23;62.34;98714.25;5036698;28;20045;-74
2022/02/03 20:54:38;;;;;;;56.05;23.15;;;;;;;-3.23;62.61;98724.13;5026390;28;20123;-74
2022/02/03 20:57:05;;;;;;;53.63;23.53;;;;;;;-3.36;62.60;98700.91;5022497;28;20084;-75
2022/02/03 20:59:53;;;;;;;57.23;22.73;;;;;;;-3.22;62.58;98720.41;5020491;28;20537;-74
2022/02/03 21:02:32;;;;;;;51.23;21.70;;;;;;;-3.26;62.54;98722.69;5023113;28;20041;-76
2022/02/03 21:05:05;;;;;;;67.60;28.53;;;;;;;-3.30;62.43;98729.50;5013553;28;20128;-75
2022/02/03 21:07:34;;;;;;;56.77;26.40;;;;;;;-3.34;62.67;98730.97;5020695;28;20520;-77
2022/02/03 21:10:04;;;;;;;61.83;24.53;;;;;;;-3.34;62.86;98731.75;5024709;28;20046;-73
2022/02/03 21:12:30;;;;;;;63.80;24.43;;;;;;;-3.36;62.62;98724.97;5013021;28;20491;-74
2022/02/03 21:14:57;;;;;;;65.40;26.53;;;;;;;-3.35;62.54;98732.78;5013646;28;20128;-72
2022/02/03 21:17:24;;;;;;;55.63;24.20;;;;;;;-3.40;62.62;98724.59;5021107;28;20411;-72
2022/02/03 21:19:50;;;;;;;51.38;21.75;;;;;;;-3.35;62.45;98732.00;5025907;28;20111;-70
2022/02/03 21:22:17;;;;;;;52.90;22.37;;;;;;;-3.37;62.48;98726.84;5021346;28;20046;-71
2022/02/03 21:24:44;;;;;;;54.83;21.23;;;;;;;-3.34;62.45;98729.09;5019513;28;20046;-72
2022/02/03 21:27:16;;;;;;;50.95;20.98;;;;;;;-3.32;62.32;98735.03;5022588;28;20041;-72
2022/02/03 21:29:43;;;;;;;41.37;19.03;;;;;;;-3.34;62.31;98736.31;5022935;28;20136;-72
2022/02/03 21:32:09;;;;;;;48.40;19.10;;;;;;;-3.37;62.50;98744.72;5014541;28;20042;-72
2022/02/03 21:34:36;;;;;;;41.03;17.63;;;;;;;-3.41;62.49;98733.66;5019818;28;20050;-71
2022/02/03 21:37:02;;;;;;;41.73;19.03;;;;;;;-3.40;62.63;98737.13;5021156;28;20065;-71
2022/02/03 21:39:29;;;;;;;44.97;19.70;;;;;;;-3.42;62.46;98732.81;5025016;28;20426;-72
2022/02/03 21:41:56;;;;;;;40.83;17.97;;;;;;;-3.43;62.78;98735.72;5019271;28;20131;-74
2022/02/03 21:44:27;;;;;;;46.15;20.33;;;;;;;-3.40;62.57;98735.28;5016809;28;20041;-74
2022/02/03 21:46:53;;;;;;;57.90;22.90;;;;;;;-3.36;62.45;98731.16;5026181;28;20191;-73
2022/02/03 21:49:23;;;;;;;51.80;23.47;;;;;;;-3.35;62.22;98729.31;5029758;28;20049;-74
2022/02/03 21:51:51;;;;;;;50.77;23.23;;;;;;;-3.30;62.46;98734.84;5020352;28;20045;-73
2022/02/03 21:54:17;;;;;;;47.57;21.17;;;;;;;-3.27;62.23;98729.06;5014537;28;20392;-74
2022/02/03 21:56:44;;;;;;;48.70;19.83;;;;;;;-3.29;62.23;98731.94;5021448;28;20051;-74
2022/02/03 21:59:14;;;;;;;41.70;17.75;;;;;;;-3.28;62.22;98730.09;5032396;28;20060;-74
2022/02/03 22:01:43;;;;;;;44.57;20.03;;;;;;;-3.32;62.02;98734.25;5032782;28;20049;-74